Time;durP1;ratioP1;P1;durP2;ratioP2;P2;SDS_P1;SDS_P2;PMS_P1;PMS_P2;Temp;Humidity;BMP_temperature;BMP_pressure;BME280_temperature;BME280_humidity;BME280_pressure;Samples;Min_cycle;Max_cycle;Signal;HPM_P1;HPM_P2
2022/01/16 00:02:09;;;;;;;2.88;2.03;;;;;;;-2.70;78.11;98191.50;4826101;29;20055;-74
2022/01/16 00:04:31;;;;;;;1.38;1.27;;;;;;;-2.71;78.20;98170.72;4794365;29;20049;-72
2022/01/16 00:06:56;;;;;;;2.58;1.42;;;;;;;-2.67;78.62;98165.31;4807526;29;20052;-76
2022/01/16 00:09:21;;;;;;;1.75;1.10;;;;;;;-2.66;78.53;98164.38;4810688;29;20046;-73
2022/01/16 00:11:45;;;;;;;3.13;1.58;;;;;;;-2.64;78.33;98165.19;4826347;29;20136;-71
2022/01/16 00:14:11;;;;;;;2.53;1.55;;;;;;;-2.63;77.65;98176.47;4826250;29;20045;-76
2022/01/16 00:16:36;;;;;;;2.50;1.40;;;;;;;-2.61;78.63;98166.81;4808302;29;20069;-76
2022/01/16 00:19:01;;;;;;;1.45;1.08;;;;;;;-2.59;78.41;98162.34;4825921;29;20100;-72
2022/01/16 00:21:28;;;;;;;1.48;1.23;;;;;;;-2.56;78.77;98165.69;4793127;29;20081;-73
2022/01/16 00:23:55;;;;;;;2.17;1.25;;;;;;;-2.61;76.58;98166.81;4794631;29;20423;-71
2022/01/16 00:26:22;;;;;;;1.67;1.40;;;;;;;-2.53;78.58;98158.66;4792171;29;20038;-73
2022/01/16 00:28:49;;;;;;;1.90;1.60;;;;;;;-2.54;77.67;98170.00;4810066;29;20109;-73
2022/01/16 00:31:14;;;;;;;1.40;1.10;;;;;;;-2.52;78.24;98171.63;4794204;29;20042;-75
2022/01/16 00:33:39;;;;;;;1.60;1.30;;;;;;;-2.46;78.37;98179.19;4810077;29;20143;-76
2022/01/16 00:36:04;;;;;;;2.30;1.13;;;;;;;-2.43;79.09;98183.44;4826852;29;20045;-74
2022/01/16 00:38:29;;;;;;;2.35;1.20;;;;;;;-2.41;78.79;98186.84;4809314;29;20051;-75
2022/01/16 00:40:54;;;;;;;2.33;1.77;;;;;;;-2.41;78.50;98185.06;4826296;29;20072;-69
2022/01/16 00:43:18;;;;;;;2.08;1.10;;;;;;;-2.38;78.41;98191.94;4825571;29;20077;-74
2022/01/16 00:45:43;;;;;;;2.50;1.25;;;;;;;-2.39;77.93;98180.66;4809181;29;20357;-75
2022/01/16 00:48:09;;;;;;;2.55;1.58;;;;;;;-2.42;76.68;98185.97;4809576;29;20045;-73
2022/01/16 00:50:39;;;;;;;4.88;1.55;;;;;;;-2.47;75.44;98198.38;4820883;29;20033;-70
2022/01/16 00:53:04;;;;;;;1.67;1.25;;;;;;;-2.38;77.03;98195.38;4808473;29;20092;-71
2022/01/16 00:55:29;;;;;;;1.30;1.20;;;;;;;-2.35;77.32;98200.47;4825054;29;20076;-71
2022/01/16 00:57:54;;;;;;;1.20;0.95;;;;;;;-2.31;78.63;98209.00;4808435;29;20227;-75
2022/01/16 01:00:19;;;;;;;3.38;1.30;;;;;;;-2.41;76.92;98219.00;4824801;29;20037;-74
2022/01/16 01:02:44;;;;;;;1.58;1.27;;;;;;;-2.47;75.63;98224.47;4809564;29;20053;-71
2022/01/16 01:05:09;;;;;;;2.25;1.63;;;;;;;-2.44;76.43;98228.72;4826173;29;20207;-79
2022/01/16 01:07:40;;;;;;;2.83;1.70;;;;;;;-2.45;76.00;98230.47;4809773;29;20045;-76
2022/01/16 01:10:07;;;;;;;2.33;1.13;;;;;;;-2.43;76.68;98235.63;4825214;29;20125;-71
2022/01/16 01:15:40;;;;;;;1.77;1.45;;;;;;;-2.54;76.15;98249.13;4734414;30;20129;-72
2022/01/16 01:18:05;;;;;;;4.32;1.90;;;;;;;-2.62;74.96;98241.63;4735652;30;20620;-71
2022/01/16 01:20:29;;;;;;;2.83;1.63;;;;;;;-2.49;76.12;98257.63;4750244;30;20503;-72
2022/01/16 01:22:54;;;;;;;1.67;1.55;;;;;;;-2.45;75.31;98250.50;4735957;30;20032;-75
2022/01/16 01:25:19;;;;;;;3.55;1.70;;;;;;;-2.40;76.18;98259.00;4721826;30;20039;-74
2022/01/16 01:27:46;;;;;;;4.65;2.10;;;;;;;-2.36;75.91;98257.94;4720819;30;20069;-70
2022/01/16 01:30:13;;;;;;;1.42;1.15;;;;;;;-2.33;76.69;98271.72;4751743;30;20051;-74
2022/01/16 01:32:42;;;;;;;2.25;1.15;;;;;;;-2.23;77.27;98267.78;4734420;30;20059;-75
2022/01/16 01:35:11;;;;;;;1.88;1.33;;;;;;;-2.17;77.97;98279.75;4751399;30;20050;-77
2022/01/16 01:37:37;;;;;;;1.60;1.20;;;;;;;-2.14;78.14;98282.22;4719030;30;20100;-74
2022/01/16 01:40:04;;;;;;;2.38;1.52;;;;;;;-2.08;79.06;98281.97;4720674;30;20074;-73
2022/01/16 01:42:33;;;;;;;3.40;1.63;;;;;;;-2.09;79.10;98297.69;4750445;30;20545;-74
2022/01/16 01:53:31;;;;;;;5.15;2.22;;;;;;;-2.23;79.13;98306.09;4749833;30;20050;-72
2022/01/16 01:55:55;;;;;;;3.97;2.13;;;;;;;-2.23;78.38;98308.72;4734979;30;20093;-73
2022/01/16 01:58:20;;;;;;;2.45;2.05;;;;;;;-2.11;80.05;98305.59;4718438;30;20094;-74
2022/01/16 02:00:45;;;;;;;5.78;2.90;;;;;;;-2.09;80.26;98329.03;4749839;30;20050;-71
2022/01/16 02:03:23;;;;;;;4.22;2.05;;;;;;;-2.07;80.61;98333.28;4748438;30;20047;-71
2022/01/16 02:05:48;;;;;;;2.83;1.80;;;;;;;-2.09;80.66;98342.94;4748421;30;20059;-64
2022/01/16 02:08:13;;;;;;;2.72;1.02;;;;;;;-2.00;81.30;98350.38;4749926;30;20047;-64
2022/01/16 02:10:42;;;;;;;3.40;2.08;;;;;;;-2.09;80.90;98342.94;4749651;30;20062;-64
2022/01/16 02:13:10;;;;;;;3.00;1.50;;;;;;;-2.20;80.76;98343.38;4735004;30;20533;-64
2022/01/16 02:31:44;;;;;;;2.22;1.35;;;;;;;-2.28;80.67;98272.38;4809405;29;20055;-65
2022/01/16 02:36:56;;;;;;;4.18;1.92;;;;;;;-2.30;80.13;98289.88;4818886;29;20045;-65
2022/01/16 02:39:26;;;;;;;3.65;1.50;;;;;;;-2.22;81.30;98329.53;4827131;29;20069;-65
2022/01/16 02:41:53;;;;;;;4.45;1.75;;;;;;;-2.27;80.89;98369.81;4825052;29;20049;-65
2022/01/16 02:44:32;;;;;;;2.83;1.50;;;;;;;-2.27;80.99;98394.16;4827631;29;20049;-65
2022/01/16 02:47:00;;;;;;;2.75;1.70;;;;;;;-2.29;81.20;98322.88;4823291;29;20041;-67
2022/01/16 02:49:31;;;;;;;2.50;1.27;;;;;;;-2.32;81.33;98316.94;4807001;29;20432;-66
2022/01/16 02:52:03;;;;;;;2.58;1.70;;;;;;;-2.36;81.17;98337.06;4807091;29;20045;-66
2022/01/16 02:54:30;;;;;;;4.45;2.55;;;;;;;-2.38;81.44;98361.56;4823728;29;20061;-66
2022/01/16 02:56:58;;;;;;;3.00;1.80;;;;;;;-2.38;81.07;98348.50;4823833;29;20166;-67
2022/01/16 02:59:22;;;;;;;2.95;1.67;;;;;;;-2.40;81.23;98313.78;4823687;29;20124;-66
2022/01/16 03:01:48;;;;;;;2.20;1.42;;;;;;;-2.52;81.28;98337.75;4824776;29;20045;-66
2022/01/16 03:04:13;;;;;;;3.10;1.98;;;;;;;-2.71;80.76;98355.91;4810883;29;20052;-64
2022/01/16 03:06:38;;;;;;;4.57;1.60;;;;;;;-2.85;80.38;98360.81;4827447;29;20041;-65
2022/01/16 03:09:08;;;;;;;3.83;1.45;;;;;;;-2.97;80.38;98364.72;4827126;29;20129;-67
2022/01/16 03:11:45;;;;;;;6.18;1.25;;;;;;;-3.07;79.48;98387.69;4826975;29;20050;-66
2022/01/16 03:14:13;;;;;;;2.53;1.55;;;;;;;-3.17;79.76;98375.03;4827235;29;20053;-67
2022/01/16 03:16:42;;;;;;;3.03;1.73;;;;;;;-3.22;79.77;98379.56;4827108;29;20417;-71
2022/01/16 03:22:03;;;;;;;3.45;1.70;;;;;;;-3.22;80.14;98400.41;4827291;29;20049;-71
2022/01/16 03:24:32;;;;;;;1.60;1.17;;;;;;;-3.16;80.90;98415.84;4810663;29;20102;-68
2022/01/16 03:27:04;;;;;;;3.63;2.17;;;;;;;-3.17;79.93;98429.78;4823175;29;20052;-69
2022/01/16 03:29:30;;;;;;;3.38;2.05;;;;;;;-3.23;76.15;98409.13;4792654;29;20050;-72
2022/01/16 03:31:56;;;;;;;3.78;2.08;;;;;;;-3.13;76.92;98415.72;4809010;29;20493;-68
2022/01/16 03:34:21;;;;;;;4.20;2.03;;;;;;;-3.06;77.48;98412.00;4808768;29;20049;-70
2022/01/16 03:36:46;;;;;;;3.33;1.58;;;;;;;-3.01;76.66;98399.63;4792466;29;20056;-72
2022/01/16 03:39:12;;;;;;;2.47;1.92;;;;;;;-3.00;75.34;98416.97;4791864;29;20413;-72
2022/01/16 03:41:39;;;;;;;3.28;1.85;;;;;;;-3.03;73.69;98430.09;4808719;29;20136;-70
2022/01/16 03:44:06;;;;;;;3.63;2.13;;;;;;;-3.02;73.97;98434.41;4777232;29;20045;-71
2022/01/16 03:46:36;;;;;;;2.63;1.33;;;;;;;-2.99;74.35;98444.75;4808875;29;20049;-72
2022/01/16 03:49:05;;;;;;;2.10;1.67;;;;;;;-2.90;75.67;98443.53;4808708;29;20046;-72
2022/01/16 03:51:31;;;;;;;6.57;2.60;;;;;;;-3.07;72.15;98447.63;4801441;29;20462;-71
2022/01/16 03:53:56;;;;;;;3.10;1.95;;;;;;;-2.97;74.23;98442.94;4826465;29;20075;-71
2022/01/16 03:56:23;;;;;;;3.72;1.67;;;;;;;-3.01;73.01;98441.34;4826725;29;20045;-73
2022/01/16 03:58:48;;;;;;;3.35;1.73;;;;;;;-2.96;75.65;98455.91;4826504;29;20045;-67
2022/01/16 04:01:13;;;;;;;3.25;1.88;;;;;;;-2.94;75.49;98454.13;4826778;29;20052;-70
2022/01/16 04:03:38;;;;;;;2.08;1.40;;;;;;;-2.90;76.09;98456.59;4809929;29;20198;-64
2022/01/16 04:06:03;;;;;;;3.30;2.17;;;;;;;-2.84;77.34;98459.84;4826496;29;20102;-65
2022/01/16 04:08:27;;;;;;;2.13;1.50;;;;;;;-2.84;76.71;98464.19;4810088;29;20053;-65
2022/01/16 04:10:52;;;;;;;2.75;1.38;;;;;;;-2.84;75.83;98459.00;4809959;29;20085;-64
2022/01/16 04:13:19;;;;;;;2.80;1.48;;;;;;;-2.81;75.62;98474.50;4824987;29;20132;-63
2022/01/16 04:15:44;;;;;;;2.95;1.45;;;;;;;-2.78;75.25;98474.41;4808423;29;20482;-64
2022/01/16 04:18:09;;;;;;;3.17;1.85;;;;;;;-2.87;73.83;98480.81;4825329;29;20853;-65
2022/01/16 04:20:34;;;;;;;1.75;1.50;;;;;;;-2.82;75.08;98478.88;4824891;29;20509;-65
2022/01/16 04:23:01;;;;;;;1.98;1.52;;;;;;;-2.77;75.97;98478.72;4825131;29;20398;-65
2022/01/16 04:25:26;;;;;;;1.88;1.05;;;;;;;-2.77;76.31;98489.13;4824949;29;20041;-63
2022/01/16 04:27:51;;;;;;;3.05;1.98;;;;;;;-2.81;75.03;98493.59;4825639;29;20138;-63
2022/01/16 04:30:16;;;;;;;9.57;2.80;;;;;;;-2.85;73.18;98492.03;4809915;29;20037;-64
2022/01/16 04:32:40;;;;;;;2.78;1.67;;;;;;;-2.87;73.36;98490.38;4794151;29;20049;-69
2022/01/16 11:50:50;;;;;;;2.38;1.50;;;;;;;-0.83;64.78;98658.31;5586572;24;20591;-68
2022/01/16 11:53:57;;;;;;;1.95;1.30;;;;;;;-0.78;64.79;98645.88;4793329;29;20054;-69
2022/01/16 11:56:39;;;;;;;2.17;1.67;;;;;;;-0.79;64.73;98645.03;4701587;30;20063;-67
2022/01/16 11:59:24;;;;;;;3.38;2.10;;;;;;;-0.87;63.12;98654.97;4701800;30;20059;-67
2022/01/16 12:01:50;;;;;;;3.80;2.08;;;;;;;-0.84;65.01;98646.16;4716164;30;20168;-68
2022/01/16 12:04:31;;;;;;;7.15;2.30;;;;;;;-0.79;66.98;98641.59;4716455;30;20048;-65
2022/01/16 12:06:59;;;;;;;3.22;2.30;;;;;;;-0.85;66.64;98639.22;4701671;30;20071;-66
2022/01/16 12:12:24;;;;;;;5.32;1.98;;;;;;;-1.04;63.16;98640.91;4716298;30;20056;-67
2022/01/16 12:14:59;;;;;;;5.07;2.08;;;;;;;-1.00;64.59;98637.22;4686719;30;20052;-67
2022/01/16 12:17:46;;;;;;;5.07;2.08;;;;;;;-1.09;62.99;98635.84;4716223;30;20051;-69
2022/01/16 12:20:14;;;;;;;4.55;2.70;;;;;;;-1.10;64.33;98637.59;4701563;30;20142;-68
2022/01/16 12:23:04;;;;;;;2.63;1.52;;;;;;;-1.03;65.54;98630.38;4726204;30;20063;-67
2022/01/16 12:25:36;;;;;;;2.63;1.88;;;;;;;-1.10;63.83;98637.59;4733691;30;20074;-67
2022/01/16 12:28:18;;;;;;;3.85;2.35;;;;;;;-1.18;63.43;98634.44;4718720;30;20055;-67
2022/01/16 12:31:02;;;;;;;5.75;2.45;;;;;;;-1.10;63.92;98640.22;4733898;30;20056;-69
2022/01/16 12:33:45;;;;;;;4.78;2.53;;;;;;;-1.25;63.65;98635.63;4785895;29;20065;-68
2022/01/16 12:36:13;;;;;;;2.15;1.77;;;;;;;-1.22;64.98;98635.47;4800018;29;20057;-67
2022/01/16 12:38:45;;;;;;;4.43;2.55;;;;;;;-1.28;63.65;98630.50;4824588;29;20255;-66
2022/01/16 12:41:30;;;;;;;3.83;1.93;;;;;;;-1.15;64.68;98636.94;4790121;29;20467;-66
2022/01/16 12:44:08;;;;;;;3.13;1.80;;;;;;;-1.24;65.27;98629.44;4824803;29;20298;-67
2022/01/16 12:46:34;;;;;;;2.97;1.80;;;;;;;-1.26;66.21;98630.44;4806681;29;20057;-65
2022/01/16 12:49:06;;;;;;;5.70;3.65;;;;;;;-1.32;64.25;98642.00;4825160;29;20124;-66
2022/01/16 12:51:34;;;;;;;3.97;2.42;;;;;;;-1.25;66.41;98632.16;4823885;29;20057;-67
2022/01/16 12:54:10;;;;;;;5.60;1.83;;;;;;;-1.30;65.86;98626.25;4822566;29;20068;-68
2022/01/16 12:56:40;;;;;;;2.33;1.83;;;;;;;-1.41;65.67;98637.13;4822648;29;20051;-68
2022/01/16 12:59:09;;;;;;;2.85;1.92;;;;;;;-1.42;66.05;98637.19;4825178;29;20140;-67
2022/01/16 13:01:34;;;;;;;4.50;2.85;;;;;;;-1.43;65.13;98630.25;4809138;29;20110;-67
2022/01/16 13:03:59;;;;;;;3.28;2.00;;;;;;;-1.35;66.39;98625.56;4808719;29;20053;-68
2022/01/16 13:06:28;;;;;;;1.77;1.63;;;;;;;-1.34;65.93;98628.13;4808691;29;20493;-68
2022/01/16 13:08:54;;;;;;;5.13;3.08;;;;;;;-1.39;65.78;98619.63;4825538;29;20394;-67
2022/01/16 13:11:21;;;;;;;4.10;2.50;;;;;;;-1.52;64.60;98616.63;4825203;29;20576;-67
2022/01/16 13:13:47;;;;;;;1.65;1.52;;;;;;;-1.64;64.39;98629.31;4825019;29;20049;-67
2022/01/16 13:16:28;;;;;;;4.30;2.60;;;;;;;-1.52;67.45;98623.63;4807872;29;20067;-67
2022/01/16 13:19:19;;;;;;;2.28;1.70;;;;;;;-1.71;63.76;98617.41;4825510;29;20041;-68
2022/01/16 13:22:06;;;;;;;4.82;2.55;;;;;;;-1.91;65.95;98619.00;4825112;29;20049;-68
2022/01/16 13:24:39;;;;;;;3.72;2.20;;;;;;;-1.87;66.25;98622.38;4823389;29;20124;-72
2022/01/16 13:27:14;;;;;;;3.38;1.80;;;;;;;-1.89;65.69;98614.59;4808292;29;20049;-67
2022/01/16 13:29:42;;;;;;;6.75;2.45;;;;;;;-1.96;66.07;98610.50;4808909;29;20041;-67
2022/01/16 13:32:09;;;;;;;3.30;1.90;;;;;;;-2.08;66.15;98613.59;4808631;29;20046;-71
2022/01/16 13:34:37;;;;;;;2.92;2.10;;;;;;;-2.10;67.36;98619.75;4807787;29;20053;-71
2022/01/16 13:37:05;;;;;;;4.40;1.95;;;;;;;-2.26;66.17;98616.88;4825377;29;20045;-72
2022/01/16 13:39:35;;;;;;;2.92;1.65;;;;;;;-2.37;66.14;98616.41;4793298;29;20049;-67
2022/01/16 13:42:19;;;;;;;2.97;2.13;;;;;;;-2.43;65.99;98614.84;4793209;29;20045;-68
2022/01/16 13:44:46;;;;;;;5.35;1.90;;;;;;;-2.59;65.54;98611.94;4808627;29;20048;-70
2022/01/16 13:47:18;;;;;;;3.63;2.05;;;;;;;-2.70;65.81;98624.50;4807260;29;20140;-66
2022/01/16 13:49:49;;;;;;;2.03;1.48;;;;;;;-2.75;65.84;98609.91;4824746;29;20042;-67
2022/01/16 13:52:23;;;;;;;3.20;1.85;;;;;;;-2.89;64.59;98626.03;4823447;29;20117;-70
2022/01/16 13:54:48;;;;;;;;;;;;;;;-2.95;63.82;98615.81;4808733;29;20171;-73
2022/01/16 13:57:28;;;;;;;;;;;;;;;-2.83;65.81;98617.16;4824098;29;20038;-66
2022/01/16 13:59:58;;;;;;;3.50;2.70;;;;;;;-3.01;65.67;98619.47;4794270;29;19923;-66
2022/01/16 14:02:23;;;;;;;3.70;2.38;;;;;;;-3.06;67.96;98616.19;4824082;29;20420;-68
2022/01/16 14:04:49;;;;;;;4.30;2.63;;;;;;;-3.12;67.34;98620.72;4807972;29;20136;-66
2022/01/16 14:07:20;;;;;;;6.65;3.35;;;;;;;-3.25;66.92;98615.06;4808129;29;20206;-68
2022/01/16 14:09:46;;;;;;;6.55;2.85;;;;;;;-3.37;67.65;98613.69;4792280;29;20048;-69
2022/01/16 14:12:10;;;;;;;4.25;2.78;;;;;;;-3.44;67.20;98617.41;4806902;29;20491;-69
2022/01/16 14:14:40;;;;;;;13.02;3.50;;;;;;;-3.47;66.78;98621.84;4823684;29;20585;-69
2022/01/16 14:19:41;;;;;;;5.63;3.00;;;;;;;-3.53;67.31;98625.53;4824081;29;20049;-66
2022/01/16 14:22:11;;;;;;;;;;;;;;;-3.52;65.54;98621.16;4824775;29;20053;-67
2022/01/16 14:24:46;;;;;;;6.22;2.60;;;;;;;-3.60;66.43;98626.59;4824695;29;19920;-66
2022/01/16 14:27:20;;;;;;;6.15;2.33;;;;;;;-3.58;66.79;98621.34;4825077;29;20045;-66
2022/01/16 14:29:47;;;;;;;6.45;3.20;;;;;;;-3.71;66.25;98620.88;4825201;29;20132;-68
2022/01/16 14:32:13;;;;;;;4.72;2.53;;;;;;;-3.70;67.84;98622.56;4807585;29;20049;-72
2022/01/16 14:34:40;;;;;;;3.67;2.47;;;;;;;-3.73;67.38;98617.47;4806761;29;20052;-72
2022/01/16 14:37:09;;;;;;;3.97;2.10;;;;;;;-3.82;67.71;98615.97;4824541;29;20128;-73
2022/01/16 14:39:35;;;;;;;5.90;2.90;;;;;;;-3.91;66.96;98618.00;4807077;29;20059;-75
2022/01/16 14:42:02;;;;;;;4.45;2.63;;;;;;;-3.94;66.92;98611.13;4791846;29;20512;-77
2022/01/16 14:44:31;;;;;;;7.50;2.95;;;;;;;-3.99;66.21;98630.41;4817853;29;20041;-75
2022/01/16 14:46:59;;;;;;;4.10;2.80;;;;;;;-3.98;67.28;98616.50;4802024;29;20042;-76
2022/01/16 14:49:26;;;;;;;7.45;3.53;;;;;;;-4.03;66.75;98621.84;4809700;29;20050;-72
2022/01/16 14:51:53;;;;;;;9.40;3.10;;;;;;;-4.16;66.51;98621.34;4806633;29;20544;-74
2022/01/16 14:54:18;;;;;;;5.97;3.75;;;;;;;-4.14;67.32;98611.72;4806783;29;20070;-71
2022/01/16 14:56:43;;;;;;;4.80;2.75;;;;;;;-4.10;67.62;98607.31;4805812;29;20052;-74
2022/01/16 14:59:11;;;;;;;3.58;2.55;;;;;;;-4.13;66.79;98600.44;4808586;29;20540;-73
2022/01/16 15:01:38;;;;;;;5.43;2.70;;;;;;;-4.18;66.72;98610.13;4792992;29;20102;-73
2022/01/16 15:04:03;;;;;;;6.93;2.65;;;;;;;-4.23;66.59;98591.19;4778080;29;20061;-74
2022/01/16 15:06:29;;;;;;;8.85;3.22;;;;;;;-4.20;66.97;98585.06;4828715;29;20397;-73
2022/01/16 15:09:00;;;;;;;4.88;2.45;;;;;;;-4.25;66.39;98589.53;4828382;29;20492;-71
2022/01/16 15:11:27;;;;;;;5.25;2.50;;;;;;;-4.20;67.94;98585.91;4811824;29;20051;-73
2022/01/16 15:13:52;;;;;;;3.35;2.15;;;;;;;-4.24;67.74;98591.22;4829453;29;20511;-72
2022/01/16 15:16:24;;;;;;;4.97;2.85;;;;;;;-4.25;68.24;98577.38;4811494;29;20044;-74
2022/01/16 15:18:56;;;;;;;5.55;2.90;;;;;;;-4.27;68.16;98584.34;4811173;29;20114;-74
2022/01/16 15:21:30;;;;;;;6.80;2.70;;;;;;;-4.23;68.44;98586.00;4817349;29;20048;-74
2022/01/16 15:24:01;;;;;;;3.40;2.35;;;;;;;-4.30;67.53;98566.25;4831289;29;20045;-74
2022/01/16 15:26:28;;;;;;;4.25;2.15;;;;;;;-4.31;67.47;98567.16;4828392;29;20479;-70
2022/01/16 15:28:54;;;;;;;5.25;2.78;;;;;;;-4.25;68.84;98569.56;4827537;29;20050;-70
2022/01/16 15:31:22;;;;;;;5.32;3.15;;;;;;;-4.31;68.26;98566.31;4795831;29;20420;-73
2022/01/16 15:33:47;;;;;;;5.40;3.42;;;;;;;-4.38;68.05;98561.25;4793567;29;20053;-74
2022/01/16 15:36:12;;;;;;;9.30;3.05;;;;;;;-4.39;69.52;98559.56;4808823;29;20050;-75
2022/01/16 15:38:38;;;;;;;4.47;2.30;;;;;;;-4.50;68.51;98561.59;4825138;29;20137;-69
2022/01/16 15:41:03;;;;;;;6.40;2.58;;;;;;;-4.56;67.90;98554.00;4827066;29;20144;-68
2022/01/16 15:43:28;;;;;;;5.72;2.90;;;;;;;-4.63;68.20;98552.47;4827042;29;20039;-73
2022/01/16 15:45:57;;;;;;;3.85;2.47;;;;;;;-4.56;69.83;98555.75;4827675;29;20056;-72
2022/01/16 15:48:23;;;;;;;6.03;2.80;;;;;;;-4.59;69.65;98548.88;4791995;29;20065;-76
2022/01/16 15:50:48;;;;;;;6.68;3.30;;;;;;;-4.68;68.66;98556.94;4784299;29;20488;-76
2022/01/16 15:53:16;;;;;;;3.97;2.45;;;;;;;-4.70;69.36;98553.53;4792704;29;20062;-75
2022/01/16 15:55:42;;;;;;;3.67;2.60;;;;;;;-4.81;68.84;98556.41;4808499;29;20501;-76
2022/01/16 15:58:08;;;;;;;8.10;3.30;;;;;;;-4.77;68.56;98552.00;4808219;29;20098;-73
2022/01/16 16:00:36;;;;;;;5.55;3.08;;;;;;;-4.76;69.13;98554.56;4808396;29;20106;-73
2022/01/16 16:03:01;;;;;;;5.95;3.50;;;;;;;-4.87;68.71;98556.59;4807594;29;20053;-74
2022/01/16 16:05:28;;;;;;;6.45;2.95;;;;;;;-4.90;68.92;98542.81;4808086;29;20053;-72
2022/01/16 16:07:53;;;;;;;5.63;2.67;;;;;;;-4.84;69.47;98546.09;4809428;29;20056;-75
2022/01/16 16:10:20;;;;;;;8.13;2.75;;;;;;;-4.84;69.83;98542.63;4808096;29;20313;-74
2022/01/16 16:12:50;;;;;;;8.77;2.88;;;;;;;-4.83;69.46;98526.16;4791516;29;20053;-74
2022/01/16 16:15:17;;;;;;;5.07;2.95;;;;;;;-4.91;68.51;98534.16;4791878;29;20053;-76
2022/01/16 16:17:43;;;;;;;5.70;2.78;;;;;;;-5.01;69.04;98534.47;4807765;29;20048;-73
2022/01/16 16:20:10;;;;;;;2.55;1.98;;;;;;;-4.99;69.23;98519.69;4808036;29;20501;-75
2022/01/16 16:22:36;;;;;;;4.57;1.98;;;;;;;-4.93;69.84;98522.09;4788632;29;20047;-66
2022/01/16 16:25:02;;;;;;;4.20;2.20;;;;;;;-4.93;70.09;98522.97;4772017;29;20051;-68
2022/01/16 16:27:29;;;;;;;8.10;2.78;;;;;;;-4.91;70.08;98523.78;4776977;29;20042;-71
2022/01/16 16:29:56;;;;;;;8.18;2.38;;;;;;;-5.00;69.45;98511.03;4780146;29;20045;-68
2022/01/16 16:32:21;;;;;;;4.20;2.70;;;;;;;-4.91;69.71;98508.19;4777210;29;20417;-69
2022/01/16 16:34:46;;;;;;;4.60;2.40;;;;;;;-5.05;69.80;98506.84;4789687;29;20054;-69
2022/01/16 16:37:14;;;;;;;5.47;3.40;;;;;;;-5.04;69.76;98503.34;4788379;29;20061;-69
2022/01/16 16:39:40;;;;;;;3.20;2.35;;;;;;;-5.05;70.08;98501.66;4780160;29;20414;-66
2022/01/16 16:42:07;;;;;;;7.25;2.28;;;;;;;-5.11;69.94;98505.28;4779476;29;20043;-65
2022/01/16 16:44:33;;;;;;;8.50;2.92;;;;;;;-5.07;69.17;98500.81;4780388;29;20486;-66
2022/01/16 16:47:05;;;;;;;4.63;3.03;;;;;;;-5.08;69.07;98505.22;4766265;29;20495;-65
2022/01/16 16:49:30;;;;;;;4.95;2.35;;;;;;;-5.08;69.80;98501.75;4787619;29;20046;-66
2022/01/16 16:51:55;;;;;;;6.20;2.58;;;;;;;-5.00;70.22;98503.25;4788519;29;20042;-66
2022/01/16 16:54:26;;;;;;;4.88;2.55;;;;;;;-5.00;70.18;98490.25;4825186;29;20061;-67
2022/01/16 16:56:51;;;;;;;5.32;2.20;;;;;;;-5.05;70.32;98492.09;4808840;29;20052;-66
2022/01/16 16:59:16;;;;;;;5.75;2.40;;;;;;;-5.10;69.98;98500.94;4825510;29;20136;-66
2022/01/16 17:01:42;;;;;;;4.07;2.03;;;;;;;-5.08;70.15;98492.22;4825468;29;20492;-67
2022/01/16 17:04:08;;;;;;;1.65;1.15;;;;;;;-5.05;71.23;98473.06;4825996;29;20132;-68
2022/01/16 17:06:34;;;;;;;7.25;3.00;;;;;;;-5.17;69.94;98474.25;4826081;29;20065;-67
2022/01/16 17:08:59;;;;;;;5.47;2.80;;;;;;;-5.16;70.47;98482.00;4825415;29;20045;-67
2022/01/16 17:11:25;;;;;;;5.63;2.90;;;;;;;-5.20;69.92;98474.34;4808787;29;20055;-67
2022/01/16 17:13:54;;;;;;;7.47;3.20;;;;;;;-5.20;70.57;98474.34;4825326;29;20057;-68
2022/01/16 17:16:22;;;;;;;4.93;2.72;;;;;;;-5.27;70.45;98478.00;4807763;29;20044;-66
2022/01/16 17:18:53;;;;;;;6.93;2.90;;;;;;;-5.32;70.64;98469.50;4808284;29;20048;-67
2022/01/16 17:21:18;;;;;;;7.50;2.55;;;;;;;-5.34;70.38;98456.53;4805699;29;20586;-67
2022/01/16 17:23:44;;;;;;;7.03;3.40;;;;;;;-5.27;70.55;98470.19;4808259;29;20397;-65
2022/01/16 17:26:10;;;;;;;7.47;3.20;;;;;;;-5.29;70.12;98459.00;4808355;29;20493;-67
2022/01/16 17:28:35;;;;;;;4.07;2.30;;;;;;;-5.21;71.34;98457.91;4824706;29;20052;-66
2022/01/16 17:31:02;;;;;;;9.98;4.35;;;;;;;-5.30;70.60;98449.50;4824706;29;20517;-68
2022/01/16 17:33:28;;;;;;;5.53;2.75;;;;;;;-5.23;71.25;98445.84;4824566;29;20514;-66
2022/01/16 17:35:56;;;;;;;3.65;2.25;;;;;;;-5.14;71.61;98459.44;4808007;29;20127;-67
2022/01/16 17:38:21;;;;;;;3.53;2.25;;;;;;;-5.19;71.59;98437.91;4807730;29;20073;-68
2022/01/16 17:40:47;;;;;;;6.47;3.28;;;;;;;-5.28;70.73;98434.72;4807524;29;20053;-69
2022/01/16 17:43:14;;;;;;;6.30;2.72;;;;;;;-5.28;71.12;98427.78;4824577;29;20090;-68
2022/01/16 17:45:43;;;;;;;6.78;2.17;;;;;;;-5.29;71.79;98420.88;4823757;29;20507;-67
2022/01/16 17:48:09;;;;;;;4.53;2.22;;;;;;;-5.34;71.28;98422.78;4823658;29;20052;-67
2022/01/16 17:50:36;;;;;;;5.53;2.78;;;;;;;-5.19;72.05;98413.72;4824631;29;20041;-68
2022/01/16 17:53:02;;;;;;;8.00;2.80;;;;;;;-5.22;71.78;98399.06;4781620;29;20145;-68
2022/01/16 17:55:30;;;;;;;3.58;2.55;;;;;;;-5.13;72.15;98403.13;4787825;29;20642;-68
2022/01/16 17:57:55;;;;;;;5.93;2.97;;;;;;;-5.12;71.29;98397.03;4787743;29;20049;-68
2022/01/16 18:00:21;;;;;;;3.95;2.22;;;;;;;-5.05;71.80;98401.16;4771661;29;20134;-65
2022/01/16 18:02:46;;;;;;;4.00;2.60;;;;;;;-5.02;71.55;98388.09;4785787;29;20053;-68
2022/01/16 18:05:12;;;;;;;3.88;3.00;;;;;;;-4.88;72.25;98391.13;4788451;29;20417;-67
2022/01/16 18:07:39;;;;;;;4.95;2.58;;;;;;;-4.82;71.43;98385.75;4787786;29;20054;-66
2022/01/16 18:10:09;;;;;;;10.38;2.50;;;;;;;-4.91;71.06;98378.22;4783828;29;20043;-65
2022/01/16 18:12:35;;;;;;;5.43;2.42;;;;;;;-4.74;72.87;98379.47;4786825;29;20061;-67
2022/01/16 18:15:01;;;;;;;5.80;2.25;;;;;;;-4.86;70.97;98365.97;4787757;29;20038;-67
2022/01/16 18:17:28;;;;;;;6.70;3.38;;;;;;;-4.85;71.06;98362.44;4786252;29;20405;-68
2022/01/16 18:19:54;;;;;;;4.10;2.22;;;;;;;-4.89;71.03;98358.25;4787863;29;20085;-69
2022/01/16 18:22:20;;;;;;;4.03;2.53;;;;;;;-4.99;71.02;98351.63;4787157;29;20088;-74
2022/01/16 18:24:46;;;;;;;5.03;2.53;;;;;;;-5.06;71.51;98347.50;4787916;29;20042;-75
2022/01/16 18:27:16;;;;;;;4.72;2.17;;;;;;;-5.06;72.07;98344.88;4788675;29;20137;-75
2022/01/16 18:29:43;;;;;;;4.10;2.53;;;;;;;-5.06;72.41;98338.84;4787314;29;20126;-70
2022/01/16 18:32:09;;;;;;;8.32;2.40;;;;;;;-5.09;71.97;98326.81;4787940;29;20054;-70
2022/01/16 18:34:35;;;;;;;5.95;2.88;;;;;;;-5.20;71.91;98321.94;4788107;29;20046;-72
2022/01/16 18:37:00;;;;;;;5.25;2.20;;;;;;;-5.10;72.95;98314.72;4788094;29;20128;-72
2022/01/16 18:39:26;;;;;;;9.13;2.33;;;;;;;-5.12;73.33;98319.09;4788617;29;20433;-72
2022/01/16 18:41:51;;;;;;;4.30;2.42;;;;;;;-5.20;72.08;98308.94;4773301;29;20422;-70
2022/01/16 18:44:16;;;;;;;5.85;2.70;;;;;;;-5.25;72.54;98309.97;4788541;29;20433;-71
2022/01/16 18:46:42;;;;;;;6.93;2.03;;;;;;;-5.14;73.76;98313.09;4789307;29;20058;-70
2022/01/16 18:49:10;;;;;;;6.60;2.47;;;;;;;-5.22;73.20;98307.28;4774035;29;20082;-70
2022/01/16 18:51:41;;;;;;;6.63;2.00;;;;;;;-5.19;73.92;98295.03;4789412;29;20057;-71
2022/01/16 18:54:05;;;;;;;4.43;2.70;;;;;;;-5.09;75.20;98300.84;4787615;29;20062;-71
2022/01/16 18:56:31;;;;;;;8.93;3.13;;;;;;;-5.28;73.50;98294.47;4788338;29;20054;-70
2022/01/16 18:58:56;;;;;;;7.95;3.75;;;;;;;-5.35;73.38;98295.56;4787451;29;20114;-71
2022/01/16 19:01:22;;;;;;;1.98;1.20;;;;;;;-5.25;74.22;98282.25;4789042;29;20123;-71
2022/01/16 19:03:48;;;;;;;5.40;2.80;;;;;;;-5.31;74.70;98279.00;4787236;29;20070;-71
2022/01/16 19:06:16;;;;;;;3.35;2.28;;;;;;;-5.17;76.00;98284.59;4788270;29;20103;-69
2022/01/16 19:08:42;;;;;;;6.80;2.80;;;;;;;-5.28;76.15;98266.75;4788190;29;20046;-71
2022/01/16 19:11:07;;;;;;;3.08;2.25;;;;;;;-5.49;74.40;98267.38;4787020;29;20125;-71
2022/01/16 19:13:34;;;;;;;8.65;2.90;;;;;;;-5.52;74.39;98272.66;4787836;29;20099;-71
2022/01/16 19:15:59;;;;;;;3.60;1.52;;;;;;;-5.44;74.70;98262.94;4788710;29;20051;-71
2022/01/16 19:18:25;;;;;;;9.07;3.53;;;;;;;-5.59;73.46;98258.16;4788026;29;20050;-70
2022/01/16 19:20:51;;;;;;;9.45;2.90;;;;;;;-5.49;74.24;98250.06;4788030;29;20169;-70
2022/01/16 19:23:21;;;;;;;4.82;2.78;;;;;;;-5.44;75.04;98242.16;4788127;29;20056;-71
2022/01/16 19:25:47;;;;;;;4.80;2.20;;;;;;;-5.41;74.45;98243.78;4788125;29;20097;-73
2022/01/16 19:28:13;;;;;;;2.50;1.20;;;;;;;-5.37;74.43;98235.88;4788491;29;20073;-71
2022/01/16 19:30:37;;;;;;;3.17;1.90;;;;;;;-5.36;74.25;98234.13;4788270;29;20055;-72
2022/01/16 19:33:05;;;;;;;2.72;1.88;;;;;;;-5.39;74.06;98236.81;4787806;29;20069;-72